Time;durP1;ratioP1;P1;durP2;ratioP2;P2;SDS_P1;SDS_P2;PMS_P1;PMS_P2;Temp;Humidity;BMP_temperature;BMP_pressure;BME280_temperature;BME280_humidity;BME280_pressure;Samples;Min_cycle;Max_cycle;Signal;HPM_P1;HPM_P2
2024/04/11 00:02:06;;;;;;;8.37;3.57;;;;;;;10.65;96.30;102241.09;5146560;56;1138372;-79
2024/04/11 00:07:12;;;;;;;5.23;3.23;;;;;;;10.66;96.80;102243.27;5162897;55;1256843;-79
2024/04/11 00:12:19;;;;;;;10.72;4.03;;;;;;;10.66;97.21;102242.80;5164633;55;1139029;-80
2024/04/11 00:17:25;;;;;;;9.13;3.07;;;;;;;10.60;96.59;102251.03;5165256;55;1142604;-80
2024/04/11 00:22:30;;;;;;;9.68;3.40;;;;;;;10.53;96.60;102257.59;5185322;55;1138664;-78
2024/04/11 00:27:36;;;;;;;16.47;5.47;;;;;;;10.41;96.36;102256.38;5164988;55;1138772;-78
2024/04/11 00:32:42;;;;;;;14.97;5.70;;;;;;;10.24;95.56;102248.41;5164479;55;1140921;-78
2024/04/11 00:37:48;;;;;;;13.53;6.40;;;;;;;10.12;96.01;102241.90;5118116;55;1140773;-78
2024/04/11 00:42:54;;;;;;;17.27;5.30;;;;;;;10.05;96.28;102237.00;5078770;56;1140941;-80
2024/04/11 00:48:01;;;;;;;9.03;5.40;;;;;;;9.90;95.41;102235.94;5078614;56;1140678;-79
2024/04/11 00:53:06;;;;;;;13.80;5.97;;;;;;;9.86;96.34;102242.30;5099596;56;1136589;-79
2024/04/11 00:58:13;;;;;;;12.60;5.15;;;;;;;9.79;96.47;102246.99;5074437;56;1138699;-78
2024/04/11 01:03:19;;;;;;;7.35;4.17;;;;;;;9.75;97.08;102247.23;5078447;56;1138836;-78
2024/04/11 01:08:30;;;;;;;7.47;3.83;;;;;;;9.72;97.36;102242.08;5078786;56;1136605;-78
2024/04/11 01:13:36;;;;;;;6.67;3.13;;;;;;;9.68;97.40;102242.69;5098757;56;1136432;-78
2024/04/11 01:18:42;;;;;;;9.40;3.83;;;;;;;9.63;97.51;102240.70;4915118;58;1136514;-81
2024/04/11 01:23:48;;;;;;;7.20;3.50;;;;;;;9.57;97.16;102242.80;5037604;56;1136681;-79
2024/04/11 01:28:54;;;;;;;6.37;3.80;;;;;;;9.39;96.66;102244.02;5099505;56;1136224;-79
2024/04/11 01:33:59;;;;;;;10.10;3.87;;;;;;;9.31;97.02;102245.30;5015446;56;1136743;-78
2024/04/11 01:39:09;;;;;;;8.60;4.13;;;;;;;9.33;97.74;102244.28;4939851;58;1138619;-80
2024/04/11 01:44:12;;;;;;;17.07;5.97;;;;;;;9.36;97.92;102241.52;5094101;56;1136473;-78
2024/04/11 01:49:18;;;;;;;20.20;5.60;;;;;;;9.30;97.11;102239.63;5074078;56;1138714;-78
2024/04/11 01:54:23;;;;;;;16.93;6.00;;;;;;;9.12;96.44;102242.16;5074671;57;1138860;-79
2024/04/11 01:59:29;;;;;;;24.17;7.07;;;;;;;9.01;97.11;102235.64;5046665;57;1138469;-78
2024/04/11 02:04:34;;;;;;;26.67;8.53;;;;;;;8.83;97.13;102239.92;5164677;55;1138264;-80
2024/04/11 02:09:40;;;;;;;24.00;6.77;;;;;;;8.75;98.04;102238.06;5165513;55;1136803;-79
2024/04/11 02:14:46;;;;;;;29.23;6.57;;;;;;;8.72;98.43;102240.36;5185615;55;1138453;-79
2024/04/11 02:19:52;;;;;;;15.83;5.87;;;;;;;8.77;99.48;102235.76;5165068;55;1138774;-80
2024/04/11 02:24:57;;;;;;;23.33;5.97;;;;;;;8.82;100.00;102242.16;5164907;55;1139007;-80
2024/04/11 02:30:05;;;;;;;25.03;6.53;;;;;;;8.87;100.00;102252.04;5122902;55;1140546;-78
2024/04/11 02:35:11;;;;;;;23.97;5.23;;;;;;;8.88;100.00;102248.48;5080389;55;1140830;-79
2024/04/11 02:40:17;;;;;;;18.10;5.93;;;;;;;8.84;99.87;102248.23;5078176;55;1140664;-80
2024/04/11 02:45:22;;;;;;;14.55;5.28;;;;;;;8.75;99.29;102258.70;5080409;55;1138345;-79
2024/04/11 02:50:28;;;;;;;14.30;4.70;;;;;;;8.57;98.64;102257.29;5100252;55;1141134;-79
2024/04/11 02:55:34;;;;;;;12.90;4.03;;;;;;;8.50;100.00;102254.06;5080557;55;1136746;-79
2024/04/11 03:00:40;;;;;;;11.33;4.57;;;;;;;8.49;99.92;102263.35;5003284;57;1140776;-78
2024/04/11 03:05:45;;;;;;;14.73;5.47;;;;;;;8.50;100.00;102259.34;5098600;56;1138584;-80
2024/04/11 03:10:51;;;;;;;12.50;4.90;;;;;;;8.51;100.00;102268.97;5025189;56;1141290;-80
2024/04/11 03:16:04;;;;;;;15.60;4.20;;;;;;;8.51;100.00;102267.66;5117692;56;1140870;-80
2024/04/11 03:21:09;;;;;;;15.03;4.72;;;;;;;8.50;100.00;102279.12;5185351;55;1140680;-79
2024/04/11 03:26:16;;;;;;;16.87;5.03;;;;;;;8.48;100.00;102278.77;5164476;55;1140984;-78
2024/04/11 03:31:21;;;;;;;16.48;5.12;;;;;;;8.41;99.99;102283.42;5164963;55;1138634;-80
2024/04/11 03:36:27;;;;;;;13.80;4.50;;;;;;;8.31;99.45;102279.42;5164295;55;1136424;-78
2024/04/11 03:41:34;;;;;;;16.65;5.10;;;;;;;8.17;99.13;102280.43;5168370;56;1136640;-79
2024/04/11 03:46:39;;;;;;;13.80;5.27;;;;;;;8.02;99.16;102281.43;5109101;54;1138857;-78
2024/04/11 03:51:49;;;;;;;14.00;4.10;;;;;;;7.94;99.09;102284.84;5039307;55;1138639;-79
2024/04/11 03:56:52;;;;;;;12.43;4.07;;;;;;;7.96;100.00;102285.61;5184629;55;1138572;-79
2024/04/11 04:01:57;;;;;;;8.10;3.47;;;;;;;7.92;100.00;102281.40;5120600;55;1140399;-79
2024/04/11 04:07:07;;;;;;;13.70;3.87;;;;;;;7.86;100.00;102279.44;5079840;55;1138684;-78
2024/04/11 04:12:10;;;;;;;10.07;3.77;;;;;;;7.75;100.00;102283.35;5112009;56;1138767;-79
2024/04/11 04:17:16;;;;;;;16.67;4.37;;;;;;;7.71;100.00;102276.93;5164739;55;1138990;-79
2024/04/11 04:22:22;;;;;;;35.53;6.67;;;;;;;7.65;100.00;102274.06;5164885;55;1138476;-80
2024/04/11 04:27:27;;;;;;;11.53;5.07;;;;;;;7.64;100.00;102280.70;5108710;56;1140678;-79
2024/04/11 04:32:33;;;;;;;15.48;6.97;;;;;;;7.62;100.00;102285.19;5129145;56;1140737;-79
2024/04/11 04:37:40;;;;;;;21.97;7.27;;;;;;;7.67;100.00;102298.56;5108976;56;1140892;-78
2024/04/11 04:42:46;;;;;;;12.30;6.37;;;;;;;7.78;100.00;102303.91;5109060;56;1140776;-78
2024/04/11 04:47:52;;;;;;;8.47;5.00;;;;;;;7.84;100.00;102306.30;5060646;55;1140763;-79
2024/04/11 04:52:59;;;;;;;9.20;4.70;;;;;;;7.86;100.00;102309.28;5024326;57;1171081;-77
2024/04/11 04:58:05;;;;;;;15.30;4.13;;;;;;;7.86;100.00;102308.42;5023142;56;1241103;-78
2024/04/11 05:03:12;;;;;;;8.43;4.20;;;;;;;7.93;100.00;102309.92;5107927;56;1187073;-77
2024/04/11 05:08:23;;;;;;;11.43;4.67;;;;;;;7.98;100.00;102313.22;5098439;55;1138872;-79
2024/04/11 05:13:29;;;;;;;13.08;4.75;;;;;;;8.14;100.00;102311.71;5078790;55;1140739;-77
2024/04/11 05:18:42;;;;;;;12.63;4.87;;;;;;;8.29;100.00;102308.94;5078667;55;1141137;-77
2024/04/11 05:23:48;;;;;;;9.53;3.80;;;;;;;8.33;100.00;102302.20;5098189;55;1140958;-77
2024/04/11 05:28:57;;;;;;;8.27;3.40;;;;;;;8.32;100.00;102304.44;5024827;57;1138330;-77
2024/04/11 05:34:13;;;;;;;8.83;2.97;;;;;;;8.28;100.00;102299.30;5024485;57;1138319;-78
2024/04/11 05:39:20;;;;;;;6.27;3.50;;;;;;;8.35;100.00;102294.23;5125778;56;1138867;-77
2024/04/11 05:44:24;;;;;;;8.10;3.47;;;;;;;8.52;100.00;102291.78;5108853;56;1138389;-77
2024/04/11 05:49:30;;;;;;;8.70;3.33;;;;;;;8.71;100.00;102294.03;5165395;55;1138891;-79
2024/04/11 05:54:36;;;;;;;9.38;3.50;;;;;;;8.93;100.00;102293.15;5173017;55;1138976;-78
2024/04/11 05:59:42;;;;;;;12.10;3.10;;;;;;;9.21;100.00;102301.59;5136922;55;1183428;-78
2024/04/11 06:04:48;;;;;;;12.80;3.50;;;;;;;9.46;100.00;102305.36;4984672;57;1140667;-78
2024/04/11 06:09:54;;;;;;;10.70;3.83;;;;;;;9.64;100.00;102301.86;5184533;55;1140872;-78
2024/04/11 06:14:59;;;;;;;7.87;3.10;;;;;;;9.85;100.00;102305.32;5126383;55;1141023;-79
2024/04/11 06:20:15;;;;;;;5.63;3.90;;;;;;;10.09;100.00;102311.23;5151326;56;1138691;-78
2024/04/11 06:25:13;;;;;;;8.53;3.27;;;;;;;10.38;100.00;102324.00;5183232;55;1140950;-79
2024/04/11 06:30:19;;;;;;;8.73;3.43;;;;;;;10.65;100.00;102323.12;5140498;55;1140927;-78
2024/04/11 06:35:27;;;;;;;8.53;3.13;;;;;;;10.78;100.00;102326.86;5163665;56;1140772;-78
2024/04/11 06:40:34;;;;;;;6.77;3.57;;;;;;;10.88;100.00;102320.64;5092465;55;1141098;-78
2024/04/11 06:45:40;;;;;;;10.53;2.63;;;;;;;11.01;100.00;102328.81;5118954;55;1141022;-79
2024/04/11 06:50:47;;;;;;;6.20;3.07;;;;;;;11.16;100.00;102330.68;5158187;55;1142548;-79
2024/04/11 06:55:53;;;;;;;11.13;4.20;;;;;;;11.35;100.00;102329.27;5141635;55;1239194;-80
2024/04/11 07:01:04;;;;;;;14.23;3.70;;;;;;;11.52;100.00;102322.63;5183146;55;1247152;-79
2024/04/11 07:06:22;;;;;;;11.70;4.07;;;;;;;11.73;100.00;102318.84;5082879;55;1143459;-79
2024/04/11 07:11:32;;;;;;;5.97;3.10;;;;;;;11.89;100.00;102322.88;5060502;55;1237025;-78
2024/04/11 07:16:40;;;;;;;6.70;3.20;;;;;;;12.00;100.00;102323.14;5122777;55;1240191;-78
2024/04/11 07:21:43;;;;;;;3.97;2.30;;;;;;;12.06;100.00;102321.50;5098839;55;1169848;-78
2024/04/11 07:26:51;;;;;;;9.47;2.60;;;;;;;12.23;100.00;102319.20;5076889;56;1211372;-78
2024/04/11 07:31:56;;;;;;;15.63;3.40;;;;;;;12.39;100.00;102324.50;5096069;55;1241402;-78
2024/04/11 07:37:01;;;;;;;12.10;3.33;;;;;;;12.53;97.82;102323.25;5158871;55;1258785;-79
2024/04/11 07:42:48;;;;;;;9.40;3.47;;;;;;;12.69;98.77;102324.94;5092190;56;1240750;-79
2024/04/11 07:47:17;;;;;;;8.97;3.47;;;;;;;12.84;95.00;102328.50;5015561;57;1252314;-78
2024/04/11 07:52:23;;;;;;;8.00;2.90;;;;;;;12.97;94.88;102314.91;5008480;57;1255076;-79
2024/04/11 07:57:28;;;;;;;6.87;2.85;;;;;;;13.25;97.72;102317.28;5165009;55;1251306;-78
2024/04/11 08:02:34;;;;;;;5.92;2.45;;;;;;;13.43;92.96;102329.47;5161783;55;1254274;-78
2024/04/11 08:07:42;;;;;;;6.10;2.83;;;;;;;13.49;86.79;102321.09;5160973;55;1257038;-78
2024/04/11 08:12:47;;;;;;;9.30;2.37;;;;;;;13.54;91.82;102318.16;5184465;55;1138773;-78
2024/04/11 08:17:53;;;;;;;6.93;2.10;;;;;;;13.71;84.00;102314.00;5162074;56;1252920;-78
2024/04/11 08:22:58;;;;;;;11.37;1.90;;;;;;;13.72;82.28;102307.26;5165241;56;1138569;-79
2024/04/11 08:28:04;;;;;;;4.83;1.60;;;;;;;13.83;83.91;102314.55;5184377;55;1140864;-78
2024/04/11 08:33:10;;;;;;;9.90;1.67;;;;;;;14.03;80.12;102309.31;5102752;55;1139042;-78
2024/04/11 08:38:18;;;;;;;3.67;2.00;;;;;;;14.13;79.24;102316.22;5078847;55;1138991;-78
2024/04/11 08:43:27;;;;;;;6.53;2.13;;;;;;;14.28;81.14;102321.41;5098850;55;1138952;-79
2024/04/11 08:48:30;;;;;;;5.60;2.17;;;;;;;14.43;77.10;102318.27;5168660;55;1173965;-78
2024/04/11 08:53:39;;;;;;;5.15;2.58;;;;;;;14.35;75.84;102315.23;5163866;56;1187800;-78
2024/04/11 08:58:47;;;;;;;7.77;2.00;;;;;;;14.51;75.72;102313.31;5163694;55;1191711;-79
2024/04/11 09:03:53;;;;;;;5.53;1.83;;;;;;;14.64;73.62;102316.02;5181251;55;1138694;-78
2024/04/11 09:09:06;;;;;;;6.20;1.87;;;;;;;14.84;75.26;102303.53;5163734;55;1138383;-78
2024/04/11 09:14:07;;;;;;;7.27;1.80;;;;;;;15.09;72.71;102306.27;5163897;55;1139060;-79
2024/04/11 09:19:13;;;;;;;8.17;2.87;;;;;;;15.27;71.17;102308.64;5184842;55;1138734;-78
2024/04/11 09:24:23;;;;;;;4.40;1.33;;;;;;;15.34;69.97;102301.91;5164307;55;1139135;-78
2024/04/11 09:29:26;;;;;;;2.93;1.00;;;;;;;15.17;67.41;102307.54;5160961;55;1138732;-78
2024/04/11 09:34:32;;;;;;;5.87;1.72;;;;;;;15.06;69.34;102290.48;5165110;55;1138769;-79
2024/04/11 09:39:48;;;;;;;4.75;1.87;;;;;;;15.10;68.38;102298.65;5184217;56;1139319;-78
2024/04/11 09:44:58;;;;;;;4.33;1.47;;;;;;;15.36;67.23;102286.66;5163078;56;1164534;-78
2024/04/11 09:50:04;;;;;;;5.43;1.40;;;;;;;15.46;65.86;102290.38;5099676;55;1219047;-78
2024/04/11 09:55:10;;;;;;;4.20;1.97;;;;;;;15.65;63.02;102281.50;5184168;55;1138769;-78
2024/04/11 10:00:43;;;;;;;3.30;1.23;;;;;;;15.58;64.26;102280.72;5164047;55;1138775;-78
2024/04/11 10:05:38;;;;;;;5.87;1.50;;;;;;;15.49;63.98;102283.50;5160655;56;1138738;-79
2024/04/11 10:10:43;;;;;;;3.73;1.47;;;;;;;15.68;63.71;102280.43;5163823;56;1138724;-78
2024/04/11 10:15:51;;;;;;;3.17;1.50;;;;;;;15.73;65.07;102279.16;5184305;55;1138765;-78
2024/04/11 10:21:04;;;;;;;5.23;2.00;;;;;;;16.03;60.27;102275.23;5164011;55;1138564;-78
2024/04/11 10:26:14;;;;;;;5.17;1.90;;;;;;;16.08;59.11;102279.26;5082139;55;1139045;-78
2024/04/11 10:31:25;;;;;;;2.33;1.53;;;;;;;16.32;59.05;102286.45;5182169;55;1138676;-78
2024/04/11 10:36:32;;;;;;;3.40;2.20;;;;;;;16.39;58.65;102271.66;5164784;55;1138665;-79
2024/04/11 10:41:35;;;;;;;7.72;2.92;;;;;;;16.38;60.36;102273.96;5164536;55;1138977;-78
2024/04/11 10:46:40;;;;;;;6.80;2.20;;;;;;;16.32;59.49;102270.43;5182058;55;1139008;-78
2024/04/11 10:51:50;;;;;;;6.87;1.77;;;;;;;16.39;61.43;102258.31;5164993;56;1138892;-78
2024/04/11 10:56:57;;;;;;;6.37;1.93;;;;;;;16.59;62.36;102258.16;5164254;56;1138800;-78
2024/04/11 11:02:10;;;;;;;2.93;1.70;;;;;;;17.01;59.50;102258.92;5133302;55;1138894;-78
2024/04/11 11:07:16;;;;;;;4.73;1.73;;;;;;;16.96;54.43;102252.25;5120066;55;1138661;-78
2024/04/11 11:12:25;;;;;;;5.43;2.23;;;;;;;16.95;56.93;102249.21;5079080;55;1139016;-78
2024/04/11 11:17:31;;;;;;;4.12;2.40;;;;;;;17.03;55.84;102250.80;5138901;55;1139068;-79
2024/04/11 11:22:40;;;;;;;18.67;2.65;;;;;;;17.28;57.00;102235.87;5122876;55;1138534;-78
2024/04/11 11:27:51;;;;;;;4.03;1.60;;;;;;;17.50;56.77;102233.21;5106209;55;1140985;-78
2024/04/11 11:32:57;;;;;;;1.97;1.50;;;;;;;17.20;54.80;102233.81;5079801;55;1138845;-78
2024/04/11 11:38:03;;;;;;;4.43;1.80;;;;;;;17.20;56.98;102218.25;5098836;55;1138523;-78
2024/04/11 11:43:16;;;;;;;2.63;1.70;;;;;;;17.39;53.32;102214.98;5106245;55;1138754;-78
2024/04/11 11:48:15;;;;;;;6.10;2.00;;;;;;;17.43;53.41;102213.25;5163335;55;1138441;-79
2024/04/11 11:53:32;;;;;;;3.50;2.00;;;;;;;17.69;54.44;102196.98;5109563;55;1138584;-78
2024/04/11 11:58:43;;;;;;;8.57;1.93;;;;;;;17.76;50.83;102208.88;5079305;56;1138821;-79
2024/04/11 12:03:44;;;;;;;5.80;2.10;;;;;;;17.78;51.50;102186.37;5080096;56;1138520;-79
2024/04/11 12:08:49;;;;;;;4.97;2.17;;;;;;;17.74;50.06;102189.41;5098941;56;1138558;-80
2024/04/11 12:14:02;;;;;;;5.97;1.70;;;;;;;17.83;53.00;102184.67;5114004;55;1138953;-80
2024/04/11 12:19:02;;;;;;;4.10;1.67;;;;;;;17.82;51.68;102187.84;5078883;56;1138442;-79
2024/04/11 12:24:09;;;;;;;4.50;1.70;;;;;;;17.87;51.54;102188.28;5099457;56;1138802;-79
2024/04/11 12:29:18;;;;;;;3.17;1.42;;;;;;;18.05;54.98;102183.25;5079316;56;1138747;-80
2024/04/11 12:34:21;;;;;;;6.97;1.93;;;;;;;18.03;52.75;102184.34;5079649;56;1138544;-80
2024/04/11 12:39:41;;;;;;;2.20;1.87;;;;;;;18.22;51.42;102180.52;5132513;55;1138740;-80
2024/04/11 12:44:38;;;;;;;3.50;1.87;;;;;;;18.09;47.89;102174.48;5197262;55;1138707;-81
2024/04/11 12:49:48;;;;;;;2.90;1.57;;;;;;;18.20;50.90;102165.06;5086749;56;1138596;-81
2024/04/11 12:55:00;;;;;;;2.67;1.67;;;;;;;18.31;48.66;102168.20;5097725;55;1138673;-80
2024/04/11 13:00:34;;;;;;;4.35;2.37;;;;;;;18.39;48.21;102158.52;5155273;55;1138836;-79
2024/04/11 13:05:13;;;;;;;3.30;1.27;;;;;;;18.55;50.03;102154.90;5148441;56;1140031;-80
2024/04/11 13:10:17;;;;;;;6.92;1.57;;;;;;;18.63;47.29;102152.95;5101714;55;1138936;-80
2024/04/11 13:15:43;;;;;;;4.42;1.22;;;;;;;18.60;49.61;102153.21;5173910;55;1138873;-81
2024/04/11 13:20:34;;;;;;;1.52;1.35;;;;;;;18.65;47.54;102132.69;5128578;55;1138870;-79
2024/04/11 13:25:45;;;;;;;5.03;1.60;;;;;;;18.65;47.54;102132.69;5106019;55;1138870;-80
2024/04/11 13:30:49;;;;;;;3.67;1.60;;;;;;;18.74;47.54;102132.77;5120761;55;1138575;-78
2024/04/11 13:35:54;;;;;;;3.58;1.22;;;;;;;18.87;48.11;102136.08;5142277;56;1138553;-78
2024/04/11 13:46:33;;;;;;;;;;;;;;;18.93;47.04;102118.62;5122624;55;1138468;-78
2024/04/11 13:51:35;;;;;;;2.47;1.20;;;;;;;19.08;49.20;102110.56;5139213;56;976566;-79
2024/04/11 13:56:47;;;;;;;5.25;1.40;;;;;;;19.24;47.31;102104.69;5133647;56;1136507;-78
2024/04/11 14:01:50;;;;;;;3.42;1.40;;;;;;;19.25;46.62;102100.50;5121554;55;1138538;-79
2024/04/11 14:07:03;;;;;;;6.50;1.45;;;;;;;19.20;46.83;102089.84;5119484;55;1138573;-78
2024/04/11 14:12:10;;;;;;;5.67;1.55;;;;;;;19.20;46.18;102086.67;5142661;55;1138595;-78
2024/04/11 14:17:22;;;;;;;1.47;1.37;;;;;;;19.17;47.02;102086.09;5124074;56;1138699;-78
2024/04/11 14:27:30;;;;;;;6.17;1.65;;;;;;;19.01;48.22;102083.07;5163965;55;1191822;-78
2024/04/11 14:38:06;;;;;;;2.55;1.20;;;;;;;19.29;48.56;102081.81;5091524;55;1138313;-78
2024/04/11 14:43:11;;;;;;;4.42;1.40;;;;;;;19.10;46.33;102070.17;5146663;55;1138698;-78
2024/04/11 14:48:23;;;;;;;1.20;0.80;;;;;;;19.01;46.81;102071.00;5184482;55;1138402;-78
2024/04/11 14:53:24;;;;;;;3.47;1.37;;;;;;;18.89;46.12;102063.07;5137790;55;1139136;-78
2024/04/11 14:58:37;;;;;;;2.75;1.07;;;;;;;18.78;46.67;102056.47;5129953;54;1138842;-79
2024/04/11 15:03:41;;;;;;;2.97;1.40;;;;;;;18.75;47.53;102055.89;5118263;55;1138774;-79
2024/04/11 15:08:46;;;;;;;4.87;1.47;;;;;;;18.77;47.26;102057.95;5164497;55;1138316;-78
2024/04/11 15:13:53;;;;;;;3.70;1.40;;;;;;;18.68;46.49;102052.88;5128019;55;1138612;-78
2024/04/11 15:18:58;;;;;;;3.65;1.50;;;;;;;18.61;48.67;102057.09;5184966;55;1138829;-78
2024/04/11 15:24:13;;;;;;;3.60;1.40;;;;;;;18.65;48.03;102050.95;5164350;55;1138984;-79
2024/04/11 15:29:29;;;;;;;9.58;1.25;;;;;;;18.71;47.43;102055.30;5163848;55;1138596;-78
2024/04/11 15:34:29;;;;;;;8.38;1.65;;;;;;;18.75;48.69;102046.50;5101158;55;1138780;-78
2024/04/11 15:39:35;;;;;;;6.70;1.45;;;;;;;18.78;47.54;102042.22;5184107;55;1138696;-78
2024/04/11 15:44:46;;;;;;;5.57;1.60;;;;;;;18.72;48.43;102037.38;5091224;56;1147309;-78
2024/04/11 15:49:57;;;;;;;5.95;1.50;;;;;;;18.68;48.76;102042.65;5162885;55;1138614;-80
2024/04/11 15:54:56;;;;;;;1.75;1.40;;;;;;;18.65;49.67;102039.74;5151398;55;1138841;-78
2024/04/11 16:00:10;;;;;;;8.50;1.80;;;;;;;18.61;51.16;102039.19;5116834;55;1138626;-78
2024/04/11 16:05:24;;;;;;;9.85;1.90;;;;;;;18.60;50.87;102037.98;5162154;55;1138700;-79
2024/04/11 16:10:18;;;;;;;3.33;1.35;;;;;;;18.51;50.98;102036.90;5175810;55;1138638;-79
2024/04/11 16:15:24;;;;;;;6.35;1.55;;;;;;;18.32;50.63;102041.33;5138113;55;1232076;-78
2024/04/11 16:20:31;;;;;;;6.28;1.62;;;;;;;18.15;51.63;102040.94;5086432;56;1138550;-78
2024/04/11 16:25:39;;;;;;;10.70;1.80;;;;;;;18.09;51.77;102036.59;5111060;55;1139142;-78
2024/04/11 16:36:11;;;;;;;3.03;1.57;;;;;;;17.93;53.09;102043.73;5129078;55;1138637;-78
2024/04/11 16:41:20;;;;;;;8.47;2.10;;;;;;;17.84;52.94;102042.69;5164223;55;1138871;-78
2024/04/11 16:46:26;;;;;;;6.20;2.07;;;;;;;17.80;53.80;102045.25;5164229;55;1138782;-79
2024/04/11 16:51:32;;;;;;;5.73;1.50;;;;;;;17.74;54.31;102044.91;5184597;56;1138435;-79
2024/04/11 16:56:38;;;;;;;4.67;1.98;;;;;;;17.73;55.28;102051.23;5137622;55;1138862;-80
2024/04/11 17:01:44;;;;;;;6.85;5.03;;;;;;;17.69;55.95;102055.16;5078011;55;1138330;-78
2024/04/11 17:06:49;;;;;;;12.58;7.60;;;;;;;17.51;56.29;102057.02;5099969;55;1138970;-80
2024/04/11 17:11:55;;;;;;;6.17;3.40;;;;;;;17.37;57.40;102055.96;5161913;56;1140705;-78
2024/04/11 17:17:16;;;;;;;3.80;2.80;;;;;;;17.29;58.21;102055.72;5162613;55;1138842;-78
2024/04/11 17:22:44;;;;;;;10.77;3.00;;;;;;;17.21;58.34;102063.53;5129779;56;1138606;-79
2024/04/11 17:27:31;;;;;;;4.93;2.90;;;;;;;17.11;59.14;102063.41;5078300;55;1140978;-78
2024/04/11 17:32:41;;;;;;;9.78;3.02;;;;;;;17.01;59.11;102062.45;5117649;55;1138517;-79
2024/04/11 17:37:48;;;;;;;8.75;2.92;;;;;;;16.91;58.76;102068.19;5132796;55;1138467;-78
2024/04/11 17:42:57;;;;;;;28.27;3.43;;;;;;;16.82;59.10;102070.23;5079311;55;1138612;-77
2024/04/11 17:48:01;;;;;;;6.07;2.70;;;;;;;16.78;59.30;102067.46;5150576;56;1141026;-79
2024/04/11 17:53:08;;;;;;;7.10;2.83;;;;;;;16.70;59.83;102057.84;5184089;55;1138740;-78
2024/04/11 17:58:21;;;;;;;5.53;2.83;;;;;;;16.71;60.22;102071.58;5163703;55;1138877;-78
2024/04/11 18:03:21;;;;;;;6.53;2.50;;;;;;;16.66;60.82;102078.61;5163278;55;1138566;-79
2024/04/11 18:08:31;;;;;;;10.53;3.30;;;;;;;16.60;61.29;102073.73;5164432;55;1138989;-78
2024/04/11 18:13:36;;;;;;;12.23;3.93;;;;;;;16.56;61.60;102080.27;5184535;55;1140919;-79
2024/04/11 18:18:47;;;;;;;10.50;3.47;;;;;;;16.53;62.21;102084.52;5162346;55;1140737;-78
2024/04/11 18:23:50;;;;;;;13.43;2.77;;;;;;;16.49;62.75;102081.25;5122596;55;1140936;-79
2024/04/11 18:28:56;;;;;;;14.57;3.37;;;;;;;16.43;63.18;102085.72;5100821;55;1140883;-79
2024/04/11 18:34:05;;;;;;;10.77;2.87;;;;;;;16.40;63.72;102088.63;5159472;55;1140633;-79
2024/04/11 18:39:12;;;;;;;5.20;2.67;;;;;;;16.40;63.58;102089.96;5159177;55;1140997;-79
2024/04/11 18:44:40;;;;;;;8.13;2.20;;;;;;;16.36;63.29;102087.15;5032034;56;1138392;-79
2024/04/11 18:49:28;;;;;;;7.67;2.03;;;;;;;16.34;63.00;102081.11;5157595;55;1138596;-78
2024/04/11 18:54:34;;;;;;;5.17;1.97;;;;;;;16.29;63.17;102085.09;5150237;55;1138665;-79
2024/04/11 18:59:41;;;;;;;7.20;2.45;;;;;;;16.24;63.11;102092.58;5016041;57;1138927;-80
2024/04/11 19:04:52;;;;;;;12.85;2.62;;;;;;;16.19;63.37;102087.63;5184444;56;1138791;-79
2024/04/11 19:10:17;;;;;;;13.50;3.83;;;;;;;16.19;63.39;102090.29;5162577;55;1141000;-78
2024/04/11 19:15:16;;;;;;;6.83;2.87;;;;;;;16.14;63.47;102093.78;5148780;55;1140756;-79
2024/04/11 19:20:28;;;;;;;12.47;2.80;;;;;;;16.06;63.47;102087.67;4984782;57;1138705;-79
2024/04/11 19:25:29;;;;;;;9.40;2.23;;;;;;;16.03;63.41;102091.08;5157161;55;1140610;-79
2024/04/11 19:30:36;;;;;;;5.53;2.40;;;;;;;15.94;63.74;102088.61;5156647;55;1138919;-79
2024/04/11 19:35:49;;;;;;;3.22;1.82;;;;;;;15.94;63.55;102094.42;5184950;56;1138691;-78
2024/04/11 19:40:49;;;;;;;2.33;1.90;;;;;;;15.87;63.80;102096.72;5176140;54;1138795;-78
2024/04/11 19:45:55;;;;;;;5.47;3.03;;;;;;;15.82;64.11;102098.39;5178422;54;1138599;-79
2024/04/11 19:51:01;;;;;;;8.97;2.50;;;;;;;15.79;64.48;102099.95;5177269;55;1138609;-78
2024/04/11 19:56:18;;;;;;;5.17;2.67;;;;;;;15.74;64.44;102086.57;5163879;56;1138642;-77
2024/04/11 20:01:21;;;;;;;4.97;2.80;;;;;;;15.69;64.55;102091.41;5158807;55;1139052;-77
2024/04/11 20:06:23;;;;;;;5.43;2.37;;;;;;;15.61;64.69;102088.45;5184624;55;1138878;-77
2024/04/11 20:11:32;;;;;;;6.63;2.63;;;;;;;15.56;64.94;102099.48;5164499;55;1138732;-78
2024/04/11 20:16:38;;;;;;;6.60;3.03;;;;;;;15.49;65.29;102094.17;5164858;55;1141013;-77
2024/04/11 20:21:48;;;;;;;5.00;2.52;;;;;;;15.40;65.76;102087.72;5184870;55;1138895;-78
2024/04/11 20:26:53;;;;;;;4.12;2.58;;;;;;;15.30;65.90;102089.80;5164874;55;1138493;-77
2024/04/11 20:31:57;;;;;;;6.67;2.87;;;;;;;15.25;66.37;102090.64;5164960;55;1138667;-77
2024/04/11 20:37:04;;;;;;;6.90;2.80;;;;;;;15.14;66.81;102104.72;5184923;56;1138736;-77
2024/04/11 20:42:41;;;;;;;4.53;2.50;;;;;;;15.06;67.42;102096.43;5128703;55;1138691;-77
2024/04/11 21:35:33;;;;;;;4.73;2.40;;;;;;;14.57;68.35;102129.16;5162829;55;1138847;-77
2024/04/11 21:40:34;;;;;;;7.13;2.63;;;;;;;14.47;68.03;102133.42;5109646;55;1138423;-78
2024/04/11 21:45:39;;;;;;;5.57;3.23;;;;;;;14.43;67.99;102139.43;5023565;57;1138935;-78
2024/04/11 21:50:45;;;;;;;4.90;2.43;;;;;;;14.36;67.82;102140.75;5023650;56;1138497;-78
2024/04/11 21:55:51;;;;;;;3.90;1.97;;;;;;;14.25;67.86;102147.77;5043003;57;1138883;-77
2024/04/11 22:01:02;;;;;;;10.00;2.70;;;;;;;14.14;68.01;102156.47;5065387;56;1138881;-77
2024/04/11 22:06:36;;;;;;;6.23;2.60;;;;;;;14.05;68.61;102157.92;5163303;56;1140893;-77
2024/04/11 22:11:19;;;;;;;9.38;2.20;;;;;;;13.98;68.76;102159.30;5173253;55;1138975;-76
2024/04/11 22:16:25;;;;;;;8.10;3.07;;;;;;;13.95;68.81;102160.81;5107162;56;1138677;-76
2024/04/11 22:21:33;;;;;;;4.33;2.90;;;;;;;13.94;68.85;102160.44;5085659;56;1138819;-76
2024/04/11 22:26:42;;;;;;;6.93;3.33;;;;;;;13.93;69.10;102172.51;5183566;55;1138636;-77
2024/04/11 22:31:53;;;;;;;6.28;3.15;;;;;;;13.95;69.63;102162.63;5163415;55;1138762;-76
2024/04/11 22:36:53;;;;;;;5.50;3.03;;;;;;;13.94;69.33;102171.55;5162502;55;1138477;-76
2024/04/11 22:42:01;;;;;;;8.07;3.13;;;;;;;13.89;69.32;102171.02;5184074;55;1138549;-76
2024/04/11 22:47:06;;;;;;;9.10;2.73;;;;;;;13.75;69.17;102176.39;5163617;56;1138475;-76
2024/04/11 22:52:21;;;;;;;6.77;2.80;;;;;;;13.66;69.40;102181.33;5163601;55;1138667;-76
2024/04/11 22:57:21;;;;;;;9.23;2.57;;;;;;;13.61;70.01;102175.91;5183004;55;1138684;-76
2024/04/11 23:02:28;;;;;;;10.17;3.37;;;;;;;13.57;69.99;102185.06;5164118;56;1138438;-77
2024/04/11 23:12:46;;;;;;;9.13;2.60;;;;;;;13.32;70.51;102188.39;5098598;57;1138508;-76
2024/04/11 23:18:06;;;;;;;6.15;1.75;;;;;;;13.17;71.04;102192.00;5150529;55;1138501;-75
2024/04/11 23:23:16;;;;;;;6.67;2.20;;;;;;;13.05;71.64;102192.26;5095879;55;1138630;-76
2024/04/11 23:28:27;;;;;;;4.47;2.10;;;;;;;12.97;72.02;102191.89;5099436;55;1138696;-75
2024/04/11 23:33:35;;;;;;;8.97;1.93;;;;;;;12.85;72.50;102184.17;5078406;55;1138767;-76
2024/04/11 23:38:47;;;;;;;6.53;2.40;;;;;;;12.80;73.27;102188.07;5079329;55;1138753;-76
2024/04/11 23:43:54;;;;;;;3.77;2.10;;;;;;;12.73;73.81;102187.57;5099294;55;1138809;-75
2024/04/11 23:49:12;;;;;;;4.20;1.90;;;;;;;12.69;74.42;102180.25;5024961;57;1139271;-76
2024/04/11 23:54:19;;;;;;;4.87;2.13;;;;;;;12.68;74.91;102171.91;5071360;56;1138789;-76
2024/04/11 23:59:24;;;;;;;7.03;2.47;;;;;;;12.75;75.36;102174.20;5183352;55;1138689;-76
